Time;durP1;ratioP1;P1;durP2;ratioP2;P2;SDS_P1;SDS_P2;PMS_P1;PMS_P2;Temp;Humidity;BMP_temperature;BMP_pressure;BME280_temperature;BME280_humidity;BME280_pressure;Samples;Min_cycle;Max_cycle;Signal;HPM_P1;HPM_P2
2022/08/21 00:02:22;;;;;;;32.10;10.05;;;;;;;9.71;100.00;100869.88;5002576;28;20046;-79
2022/08/21 00:04:48;;;;;;;28.40;6.18;;;;;;;9.66;100.00;100870.38;4980966;28;20108;-79
2022/08/21 00:07:14;;;;;;;23.13;5.65;;;;;;;9.73;100.00;100867.84;4974245;28;20077;-79
2022/08/21 00:09:40;;;;;;;28.65;6.68;;;;;;;9.75;100.00;100869.38;5005770;28;20132;-80
2022/08/21 00:12:06;;;;;;;26.27;7.00;;;;;;;9.67;100.00;100867.53;4988243;28;20036;-80
2022/08/21 00:14:33;;;;;;;42.08;10.13;;;;;;;9.61;100.00;100868.19;4999354;28;20034;-80
2022/08/21 00:16:59;;;;;;;32.33;7.10;;;;;;;9.57;100.00;100879.44;4967975;28;20095;-80
2022/08/21 00:19:25;;;;;;;26.20;6.20;;;;;;;9.49;100.00;100876.72;4970711;28;20029;-80
2022/08/21 00:21:54;;;;;;;27.73;6.03;;;;;;;9.44;100.00;100874.53;5000797;28;22195;-80
2022/08/21 00:24:21;;;;;;;18.80;4.65;;;;;;;9.38;100.00;100872.53;5007490;28;20495;-80
2022/08/21 00:26:47;;;;;;;28.33;5.88;;;;;;;9.30;100.00;100876.03;4994345;28;20049;-80
2022/08/21 00:29:13;;;;;;;26.02;4.55;;;;;;;9.19;100.00;100876.34;4982516;28;20081;-80
2022/08/21 00:31:40;;;;;;;24.20;4.72;;;;;;;9.11;100.00;100865.59;4983635;28;20035;-79
2022/08/21 00:34:07;;;;;;;13.27;3.60;;;;;;;9.01;100.00;100865.72;5004285;28;20048;-80
2022/08/21 00:36:34;;;;;;;17.10;4.00;;;;;;;8.93;100.00;100866.53;5004320;28;20026;-79
2022/08/21 00:39:00;;;;;;;24.92;5.63;;;;;;;8.88;100.00;100868.03;5008112;28;20113;-80
2022/08/21 00:41:26;;;;;;;14.93;3.55;;;;;;;8.80;100.00;100876.88;4993249;28;20034;-80
2022/08/21 00:43:52;;;;;;;22.15;4.00;;;;;;;8.66;100.00;100859.56;4983684;28;20103;-79
2022/08/21 00:46:18;;;;;;;22.40;4.32;;;;;;;8.68;100.00;100875.47;4982786;28;20038;-79
2022/08/21 00:48:44;;;;;;;21.35;4.45;;;;;;;8.67;100.00;100871.97;4986836;28;20038;-80
2022/08/21 00:51:15;;;;;;;17.17;4.07;;;;;;;8.63;100.00;100877.81;5007125;28;20403;-79
2022/08/21 00:53:43;;;;;;;10.05;3.65;;;;;;;8.51;100.00;100875.41;5005783;28;20391;-80
2022/08/21 00:56:10;;;;;;;17.95;4.53;;;;;;;8.47;100.00;100875.91;5003681;28;20033;-79
2022/08/21 00:58:37;;;;;;;13.63;4.25;;;;;;;8.41;100.00;100868.47;5006409;28;20052;-79
2022/08/21 01:01:04;;;;;;;23.88;5.35;;;;;;;8.32;100.00;100873.75;4985033;28;20121;-79
2022/08/21 01:03:31;;;;;;;23.90;5.57;;;;;;;8.21;100.00;100866.00;4990502;28;20038;-79
2022/08/21 01:05:56;;;;;;;22.33;5.13;;;;;;;8.11;100.00;100868.78;4984873;28;20077;-79
2022/08/21 01:08:23;;;;;;;16.17;4.75;;;;;;;8.14;100.00;100879.16;4976851;28;20439;-80
2022/08/21 01:10:49;;;;;;;18.63;4.55;;;;;;;8.12;100.00;100864.25;4976704;28;20037;-80
2022/08/21 01:13:17;;;;;;;13.82;4.95;;;;;;;8.05;100.00;100852.50;4988408;28;20030;-79
2022/08/21 01:15:46;;;;;;;21.58;5.38;;;;;;;8.16;100.00;100868.31;4966695;28;20030;-79
2022/08/21 01:18:13;;;;;;;34.70;9.93;;;;;;;8.19;100.00;100862.63;4995611;28;20476;-79
2022/08/21 01:20:43;;;;;;;42.20;9.45;;;;;;;8.17;100.00;100864.63;4966755;28;20026;-79
2022/08/21 01:23:08;;;;;;;22.95;5.10;;;;;;;8.17;100.00;100853.06;4970203;28;20272;-79
2022/08/21 01:25:34;;;;;;;18.52;4.53;;;;;;;8.14;100.00;100857.75;4987946;28;20476;-79
2022/08/21 01:28:06;;;;;;;14.90;3.90;;;;;;;8.10;100.00;100853.72;4976413;28;20030;-80
2022/08/21 01:30:35;;;;;;;14.10;3.88;;;;;;;8.04;100.00;100848.13;5000539;28;20030;-79
2022/08/21 01:33:00;;;;;;;15.27;3.92;;;;;;;7.96;100.00;100837.38;4987336;28;20531;-79
2022/08/21 01:35:26;;;;;;;19.30;4.07;;;;;;;7.83;100.00;100841.31;4985015;28;20030;-79
2022/08/21 01:37:52;;;;;;;20.85;3.88;;;;;;;7.71;100.00;100831.84;4974271;28;20038;-79
2022/08/21 01:40:18;;;;;;;13.35;3.30;;;;;;;7.70;100.00;100828.31;5009713;28;20088;-80
2022/08/21 01:42:45;;;;;;;15.35;3.20;;;;;;;7.71;100.00;100835.34;5003732;28;20065;-80
2022/08/21 01:45:11;;;;;;;19.33;4.82;;;;;;;7.26;100.00;100765.91;5004486;28;20041;-80
2022/08/21 01:47:37;;;;;;;12.13;3.45;;;;;;;7.51;100.00;100819.63;4984445;28;20125;-81
2022/08/21 01:50:09;;;;;;;72.82;19.67;;;;;;;7.38;100.00;100810.16;4991401;28;20568;-81
2022/08/21 01:52:35;;;;;;;37.67;11.50;;;;;;;7.38;100.00;100831.56;4971052;28;20041;-81
2022/08/21 01:55:01;;;;;;;35.22;7.68;;;;;;;7.31;100.00;100827.81;5001068;28;20404;-81
2022/08/21 01:57:27;;;;;;;21.23;5.78;;;;;;;7.26;100.00;100828.28;4999347;28;20041;-81
2022/08/21 01:59:53;;;;;;;16.15;5.53;;;;;;;7.16;100.00;100818.63;4984917;28;20463;-80
2022/08/21 02:02:19;;;;;;;14.07;3.47;;;;;;;7.19;100.00;100824.50;4965742;28;22130;-80
2022/08/21 02:04:44;;;;;;;17.40;3.28;;;;;;;7.25;100.00;100831.09;4990846;28;20148;-78
2022/08/21 02:07:10;;;;;;;24.25;3.15;;;;;;;7.21;100.00;100824.38;4969382;28;20565;-79
2022/08/21 02:09:35;;;;;;;7.05;2.63;;;;;;;7.07;100.00;100803.53;4967914;28;20427;-79
2022/08/21 02:12:01;;;;;;;9.30;2.55;;;;;;;7.15;100.00;100817.81;4964474;28;20497;-81
2022/08/21 02:14:27;;;;;;;7.18;2.05;;;;;;;7.03;100.00;100814.50;4967354;28;20392;-79
2022/08/21 02:16:52;;;;;;;9.25;2.25;;;;;;;7.05;100.00;100820.53;4985278;28;20030;-81
2022/08/21 02:19:18;;;;;;;8.18;2.35;;;;;;;7.01;100.00;100813.84;5005949;28;20039;-81
2022/08/21 02:21:44;;;;;;;8.45;1.80;;;;;;;6.97;100.00;100815.09;4987927;28;20369;-81
2022/08/21 02:24:10;;;;;;;5.85;1.88;;;;;;;6.77;100.00;100784.16;4985836;28;20037;-80
2022/08/21 02:26:36;;;;;;;7.25;2.10;;;;;;;6.52;100.00;100754.50;4984968;28;20132;-81
2022/08/21 02:29:03;;;;;;;4.50;1.83;;;;;;;6.85;100.00;100823.47;4967066;28;20132;-80
2022/08/21 02:31:28;;;;;;;10.73;3.00;;;;;;;6.82;100.00;100816.59;4985896;28;20055;-81
2022/08/21 02:33:54;;;;;;;6.18;2.97;;;;;;;6.88;100.00;100824.03;5000313;28;20037;-80
2022/08/21 02:36:20;;;;;;;13.02;3.33;;;;;;;6.97;100.00;100831.16;4984397;28;20096;-81
2022/08/21 02:38:46;;;;;;;9.93;3.20;;;;;;;6.97;100.00;100841.00;5000180;28;20428;-81
2022/08/21 02:41:16;;;;;;;9.27;3.00;;;;;;;6.92;100.00;100840.63;4965971;28;20468;-81
2022/08/21 02:43:42;;;;;;;13.57;3.30;;;;;;;6.83;100.00;100843.19;4960371;28;20472;-81
2022/08/21 02:46:09;;;;;;;8.95;3.35;;;;;;;6.82;100.00;100854.03;4998050;28;20026;-81
2022/08/21 02:48:36;;;;;;;10.75;2.92;;;;;;;6.82;100.00;100846.00;5001158;28;20030;-81
2022/08/21 02:51:07;;;;;;;12.20;3.65;;;;;;;6.78;100.00;100834.78;4994497;28;20042;-81
2022/08/21 02:53:35;;;;;;;19.55;4.80;;;;;;;6.75;100.00;100834.25;4987090;28;20477;-80
2022/08/21 02:56:03;;;;;;;8.35;2.83;;;;;;;6.81;100.00;100842.50;4984787;28;20042;-81
2022/08/21 02:58:31;;;;;;;8.65;2.80;;;;;;;6.81;100.00;100830.97;4989859;28;20561;-80
2022/08/21 03:00:58;;;;;;;5.72;2.20;;;;;;;6.71;100.00;100823.00;4977949;28;20044;-81
2022/08/21 03:03:25;;;;;;;6.25;2.13;;;;;;;6.58;100.00;100831.34;5000064;28;20328;-80
2022/08/21 03:05:50;;;;;;;5.45;1.83;;;;;;;6.50;100.00;100838.44;4971219;28;20029;-79
2022/08/21 03:08:18;;;;;;;6.75;2.20;;;;;;;6.30;100.00;100827.84;4994093;28;20053;-81
2022/08/21 03:10:48;;;;;;;3.17;1.63;;;;;;;6.32;100.00;100852.56;4985536;28;20041;-80
2022/08/21 03:13:15;;;;;;;9.82;2.60;;;;;;;6.28;100.00;100839.66;4998399;28;20049;-80
2022/08/21 03:15:41;;;;;;;11.60;2.97;;;;;;;6.28;100.00;100850.34;4996957;28;20037;-80
2022/08/21 03:18:08;;;;;;;8.30;2.60;;;;;;;6.27;100.00;100852.19;5004343;28;20077;-80
2022/08/21 03:20:35;;;;;;;7.63;2.30;;;;;;;6.33;100.00;100864.09;4980420;28;20021;-80
2022/08/21 03:23:03;;;;;;;13.60;3.30;;;;;;;6.33;100.00;100856.09;4969596;28;20109;-80
2022/08/21 03:25:31;;;;;;;7.60;2.63;;;;;;;6.32;100.00;100857.88;4989845;28;20057;-80
2022/08/21 03:27:57;;;;;;;6.70;2.28;;;;;;;6.31;100.00;100863.41;4973355;28;20120;-80
2022/08/21 03:30:23;;;;;;;7.35;2.40;;;;;;;6.34;100.00;100863.09;4997067;28;20034;-80
2022/08/21 03:32:50;;;;;;;15.90;2.65;;;;;;;6.33;100.00;100869.44;4996649;28;20045;-79
2022/08/21 03:35:16;;;;;;;9.02;2.42;;;;;;;6.20;100.00;100847.56;4997353;28;20034;-79
2022/08/21 03:37:43;;;;;;;13.07;3.67;;;;;;;6.28;100.00;100861.84;4998960;28;20511;-79
2022/08/21 03:40:11;;;;;;;14.25;2.92;;;;;;;6.13;100.00;100841.94;4968239;28;20037;-79
2022/08/21 03:42:37;;;;;;;14.73;3.63;;;;;;;5.95;100.00;100828.50;4979090;28;20022;-81
2022/08/21 03:45:03;;;;;;;7.90;2.63;;;;;;;6.14;100.00;100847.16;5000737;28;20385;-80
2022/08/21 03:47:29;;;;;;;7.47;2.72;;;;;;;6.16;100.00;100846.97;4970089;28;20046;-80
2022/08/21 03:49:54;;;;;;;10.82;2.88;;;;;;;6.16;100.00;100849.66;4998669;28;20026;-80
2022/08/21 03:52:20;;;;;;;16.80;2.60;;;;;;;6.15;100.00;100843.47;4999631;28;20087;-80
2022/08/21 03:54:46;;;;;;;10.55;2.60;;;;;;;6.18;100.00;100841.50;4965305;28;20022;-80
2022/08/21 03:57:11;;;;;;;4.85;2.20;;;;;;;6.11;100.00;100846.56;4982758;28;20036;-80
2022/08/21 03:59:39;;;;;;;6.60;2.30;;;;;;;5.86;100.00;100824.84;4983634;28;20522;-80
2022/08/21 04:02:06;;;;;;;6.22;1.92;;;;;;;5.82;100.00;100835.94;4995789;28;20038;-80
2022/08/21 04:04:33;;;;;;;8.07;2.17;;;;;;;5.70;100.00;100848.59;4999566;28;20037;-80
2022/08/21 04:06:59;;;;;;;9.93;2.13;;;;;;;5.57;100.00;100853.38;5001105;28;20053;-80
2022/08/21 04:09:25;;;;;;;5.15;1.92;;;;;;;5.46;100.00;100863.19;4998953;28;20068;-81
2022/08/21 04:11:51;;;;;;;9.98;2.38;;;;;;;5.40;100.00;100855.78;4986290;28;20111;-80
2022/08/21 04:14:17;;;;;;;10.40;2.00;;;;;;;5.39;100.00;100842.56;5005505;28;20543;-80
2022/08/21 04:16:43;;;;;;;4.88;1.98;;;;;;;5.39;100.00;100848.75;4987904;28;20076;-80
2022/08/21 04:19:10;;;;;;;5.25;2.33;;;;;;;5.43;100.00;100855.50;4989728;28;20050;-80
2022/08/21 04:21:37;;;;;;;6.90;1.95;;;;;;;5.36;100.00;100848.19;4986443;28;20078;-80
2022/08/21 04:24:03;;;;;;;6.80;1.48;;;;;;;5.38;100.00;100848.91;4989679;28;20137;-80
2022/08/21 04:26:28;;;;;;;3.70;1.60;;;;;;;5.07;100.00;100809.00;4983619;28;20057;-80
2022/08/21 04:28:57;;;;;;;5.38;2.00;;;;;;;5.20;100.00;100841.56;4990880;28;20484;-80
2022/08/21 04:31:23;;;;;;;7.70;2.00;;;;;;;5.14;100.00;100860.78;4988385;28;20034;-80
2022/08/21 04:33:50;;;;;;;12.55;2.00;;;;;;;5.01;100.00;100853.06;5001888;28;20045;-81
2022/08/21 04:36:15;;;;;;;3.10;1.40;;;;;;;4.97;100.00;100856.13;4994192;28;20061;-80
2022/08/21 04:38:43;;;;;;;3.83;1.63;;;;;;;4.92;100.00;100859.22;4997029;28;20520;-81
2022/08/21 04:41:09;;;;;;;5.45;1.52;;;;;;;4.89;100.00;100861.28;4999805;28;20038;-80
2022/08/21 04:43:35;;;;;;;3.33;1.27;;;;;;;4.83;100.00;100850.22;4983708;28;20049;-80
2022/08/21 04:46:01;;;;;;;11.43;2.20;;;;;;;4.83;100.00;100847.53;5004507;28;20034;-80
2022/08/21 04:48:27;;;;;;;2.33;1.20;;;;;;;4.94;100.00;100851.06;4999670;28;20503;-80
2022/08/21 04:50:57;;;;;;;5.93;2.25;;;;;;;5.05;100.00;100859.81;4968353;28;20042;-80
2022/08/21 04:53:33;;;;;;;3.35;1.67;;;;;;;5.18;100.00;100856.03;4982128;28;20499;-80
2022/08/21 04:56:10;;;;;;;4.95;2.00;;;;;;;5.37;100.00;100855.19;4971024;28;20548;-80
2022/08/21 04:58:37;;;;;;;12.07;2.92;;;;;;;5.49;100.00;100851.41;4985021;28;20176;-80
2022/08/21 05:01:04;;;;;;;4.60;2.10;;;;;;;5.52;100.00;100848.47;4992293;28;20468;-80
2022/08/21 05:03:33;;;;;;;7.75;2.53;;;;;;;5.54;100.00;100854.50;4989889;28;20030;-80
2022/08/21 05:05:59;;;;;;;6.07;1.88;;;;;;;5.43;100.00;100857.31;5005039;28;20044;-80
2022/08/21 05:08:26;;;;;;;8.82;2.00;;;;;;;5.27;100.00;100865.88;4983036;28;20496;-79
2022/08/21 05:10:51;;;;;;;5.55;2.15;;;;;;;5.22;100.00;100871.59;4989354;28;20038;-80
2022/08/21 05:13:17;;;;;;;5.70;1.80;;;;;;;5.12;100.00;100861.91;4990480;28;20408;-80
2022/08/21 05:15:43;;;;;;;6.13;2.00;;;;;;;5.07;100.00;100857.81;4967666;28;20095;-79
2022/08/21 05:18:09;;;;;;;10.52;2.13;;;;;;;4.94;100.00;100846.59;4966287;28;20030;-79
2022/08/21 05:20:35;;;;;;;7.15;2.25;;;;;;;4.99;100.00;100857.66;4978595;28;20536;-80
2022/08/21 05:23:01;;;;;;;14.82;2.60;;;;;;;5.10;100.00;100855.88;4983485;28;20042;-80
2022/08/21 05:25:27;;;;;;;12.02;2.05;;;;;;;5.18;100.00;100859.53;4986928;28;20034;-80
2022/08/21 05:27:53;;;;;;;9.02;2.08;;;;;;;5.15;100.00;100859.81;4984715;28;20096;-79
2022/08/21 05:30:20;;;;;;;7.47;2.17;;;;;;;5.17;100.00;100863.19;4973954;28;20068;-79
2022/08/21 05:32:47;;;;;;;9.50;2.25;;;;;;;5.12;100.00;100853.91;4960886;28;20042;-80
2022/08/21 05:35:13;;;;;;;4.63;2.22;;;;;;;5.11;100.00;100854.88;5001473;28;20030;-80
2022/08/21 05:37:39;;;;;;;5.72;2.20;;;;;;;5.09;100.00;100852.38;4973964;28;20030;-79
2022/08/21 05:40:06;;;;;;;8.85;1.90;;;;;;;4.96;100.00;100857.13;4969550;28;20050;-79
2022/08/21 05:42:32;;;;;;;8.23;2.00;;;;;;;4.90;100.00;100869.16;4990451;28;20038;-80
2022/08/21 05:44:58;;;;;;;4.88;2.17;;;;;;;4.91;100.00;100889.50;4987165;28;20044;-80
2022/08/21 05:47:23;;;;;;;11.27;2.78;;;;;;;4.95;100.00;100895.38;4984746;28;20436;-80
2022/08/21 05:49:49;;;;;;;10.02;2.17;;;;;;;4.90;100.00;100893.16;4992101;28;20041;-79
2022/08/21 05:52:19;;;;;;;13.60;2.55;;;;;;;5.05;100.00;100901.59;5005651;28;20042;-80
2022/08/21 05:54:45;;;;;;;6.75;2.08;;;;;;;5.18;100.00;100906.66;4984755;28;20116;-80
2022/08/21 05:57:10;;;;;;;9.93;2.22;;;;;;;5.35;100.00;100905.19;4982520;28;20419;-80
2022/08/21 05:59:37;;;;;;;6.53;2.00;;;;;;;5.45;100.00;100904.19;4982719;28;20479;-80
2022/08/21 06:02:04;;;;;;;8.40;2.00;;;;;;;5.52;100.00;100920.47;4984375;28;20045;-80
2022/08/21 06:04:29;;;;;;;7.50;2.30;;;;;;;5.48;100.00;100919.09;4987581;28;20083;-80
2022/08/21 06:06:55;;;;;;;6.50;2.10;;;;;;;5.48;100.00;100919.91;4972560;28;20046;-81
2022/08/21 06:09:21;;;;;;;10.20;2.95;;;;;;;5.50;100.00;100923.28;4983192;28;20038;-80
2022/08/21 06:11:46;;;;;;;8.80;2.35;;;;;;;5.61;100.00;100933.00;4984400;28;20030;-80
2022/08/21 06:14:16;;;;;;;7.10;2.13;;;;;;;5.63;100.00;100941.69;4990403;28;20041;-81
2022/08/21 06:16:42;;;;;;;7.75;2.53;;;;;;;5.70;100.00;100934.81;4980157;28;20913;-80
2022/08/21 06:19:07;;;;;;;5.80;2.17;;;;;;;5.83;100.00;100931.03;5001073;28;20080;-80
2022/08/21 06:21:33;;;;;;;4.45;2.15;;;;;;;5.96;100.00;100934.28;4966382;28;20026;-81
2022/08/21 06:23:59;;;;;;;14.38;2.85;;;;;;;6.04;100.00;100934.41;4968423;28;20488;-79
2022/08/21 06:26:24;;;;;;;10.10;3.20;;;;;;;6.04;100.00;100934.41;4986904;28;20038;-80
2022/08/21 06:28:50;;;;;;;13.50;2.70;;;;;;;6.11;100.00;100932.88;4999441;28;20034;-81
2022/08/21 06:31:19;;;;;;;6.22;2.65;;;;;;;6.39;100.00;100936.44;4973195;28;20095;-81
2022/08/21 06:33:45;;;;;;;7.53;2.97;;;;;;;6.66;100.00;100925.97;4975451;28;20034;-81
2022/08/21 06:36:11;;;;;;;10.38;2.70;;;;;;;6.88;100.00;100922.06;5000985;28;20125;-80
2022/08/21 06:38:37;;;;;;;12.23;3.15;;;;;;;7.29;100.00;100941.31;4971797;28;20121;-80
2022/08/21 06:41:03;;;;;;;11.30;3.10;;;;;;;7.67;100.00;100937.50;4965498;28;20091;-80
2022/08/21 06:43:29;;;;;;;11.70;2.78;;;;;;;8.02;100.00;100920.59;4985306;28;20387;-80
2022/08/21 06:45:55;;;;;;;14.90;3.90;;;;;;;8.43;100.00;100922.75;5005509;28;20041;-80
2022/08/21 06:48:21;;;;;;;14.95;3.35;;;;;;;8.85;100.00;100933.53;4985433;28;20034;-81
2022/08/21 06:50:47;;;;;;;15.32;3.88;;;;;;;9.20;100.00;100929.00;4981991;28;20037;-81
2022/08/21 06:53:17;;;;;;;11.52;3.20;;;;;;;9.37;100.00;100911.13;5000843;28;20033;-80
2022/08/21 06:55:43;;;;;;;18.58;3.50;;;;;;;9.80;100.00;100939.53;4981258;28;20038;-80
2022/08/21 06:58:10;;;;;;;17.15;3.92;;;;;;;10.10;100.00;100940.69;4988785;28;20132;-81
2022/08/21 07:00:39;;;;;;;13.05;3.90;;;;;;;10.39;100.00;100941.22;4997031;28;20034;-80
2022/08/21 07:03:05;;;;;;;13.43;3.72;;;;;;;10.51;100.00;100948.78;4984249;28;20552;-80
2022/08/21 07:05:32;;;;;;;8.80;3.50;;;;;;;10.61;100.00;100953.97;4998618;28;20034;-80
2022/08/21 07:07:58;;;;;;;15.50;3.28;;;;;;;10.74;100.00;100942.66;4994555;28;20477;-79
2022/08/21 07:10:26;;;;;;;22.63;3.78;;;;;;;11.09;100.00;100943.25;4984048;28;20116;-78
2022/08/21 07:12:55;;;;;;;13.95;2.85;;;;;;;11.33;100.00;100943.13;4987900;28;20099;-78
2022/08/21 07:15:21;;;;;;;8.80;2.60;;;;;;;11.19;100.00;100949.22;4966860;28;20041;-79
2022/08/21 07:17:46;;;;;;;8.63;1.77;;;;;;;11.58;100.00;100945.66;5000108;28;20036;-78
2022/08/21 07:20:12;;;;;;;11.10;3.05;;;;;;;12.04;100.00;100934.91;4984814;28;20506;-79
2022/08/21 07:22:37;;;;;;;11.10;2.88;;;;;;;12.54;100.00;100928.03;5000966;28;20068;-79
2022/08/21 07:25:05;;;;;;;13.57;2.83;;;;;;;13.71;100.00;100940.81;4989950;28;20030;-79
2022/08/21 07:27:31;;;;;;;6.68;2.90;;;;;;;15.30;99.32;100944.69;5002154;28;20192;-80
2022/08/21 07:29:57;;;;;;;11.10;2.50;;;;;;;16.20;95.91;100945.31;4993662;28;20399;-79
2022/08/21 07:32:23;;;;;;;13.30;2.85;;;;;;;17.24;91.33;100951.00;4997919;28;20128;-80
2022/08/21 07:34:49;;;;;;;7.07;2.42;;;;;;;17.98;89.61;100953.13;4997322;28;20117;-80
2022/08/21 07:37:14;;;;;;;14.18;4.13;;;;;;;18.48;83.23;100955.03;4988392;28;20044;-79
2022/08/21 07:39:40;;;;;;;13.00;2.47;;;;;;;18.66;80.46;100955.09;4983576;28;20037;-79
2022/08/21 07:42:06;;;;;;;10.77;2.58;;;;;;;18.76;80.26;100957.34;4985857;28;20038;-80
2022/08/21 07:44:34;;;;;;;10.38;2.63;;;;;;;19.43;81.29;100954.66;4997316;28;20507;-80
2022/08/21 07:47:00;;;;;;;14.23;2.90;;;;;;;20.23;78.86;100961.72;4983082;28;20042;-79
2022/08/21 07:49:27;;;;;;;10.27;2.55;;;;;;;20.84;76.52;100956.91;4970084;28;20531;-80
2022/08/21 07:51:52;;;;;;;13.75;2.60;;;;;;;21.40;74.25;100947.16;4995179;28;20468;-80
2022/08/21 07:54:18;;;;;;;16.63;3.40;;;;;;;22.23;70.64;100947.63;4978635;28;20097;-80
2022/08/21 07:56:44;;;;;;;14.15;3.03;;;;;;;22.77;68.63;100947.06;4999800;28;20045;-80
2022/08/21 07:59:13;;;;;;;17.38;2.70;;;;;;;23.35;67.56;100937.44;5000509;28;20069;-83
2022/08/21 08:01:39;;;;;;;10.13;2.50;;;;;;;23.21;67.06;100931.50;4966054;28;20069;-82
2022/08/21 08:04:06;;;;;;;20.67;3.10;;;;;;;22.87;68.88;100935.44;4973031;28;20472;-82
2022/08/21 08:06:31;;;;;;;14.15;3.75;;;;;;;21.79;70.07;100941.06;4995160;28;20046;-79
2022/08/21 08:08:57;;;;;;;8.13;2.17;;;;;;;20.70;74.90;100947.28;5001735;28;20034;-79
2022/08/21 08:11:23;;;;;;;15.93;3.08;;;;;;;19.91;74.93;100933.88;4996415;28;20033;-79
2022/08/21 08:13:51;;;;;;;9.70;2.25;;;;;;;19.59;79.57;100955.09;4967403;28;20076;-79
2022/08/21 08:16:17;;;;;;;9.75;3.47;;;;;;;18.99;81.20;100951.19;4970025;28;20066;-79
2022/08/21 08:18:44;;;;;;;13.32;2.90;;;;;;;18.70;83.05;100960.91;4972477;28;20081;-79
2022/08/21 08:21:13;;;;;;;8.23;2.10;;;;;;;18.48;83.46;100962.38;5003379;28;20057;-79
2022/08/21 08:23:39;;;;;;;15.32;2.85;;;;;;;18.38;80.49;100954.72;5004810;28;20037;-80
2022/08/21 08:26:08;;;;;;;14.27;2.80;;;;;;;19.13;77.58;100954.59;5003801;28;20030;-79
2022/08/21 08:28:33;;;;;;;23.17;4.00;;;;;;;19.65;73.39;100922.25;5003324;28;20384;-80
2022/08/21 08:31:00;;;;;;;13.35;2.45;;;;;;;20.23;72.00;100963.63;4982332;28;20046;-80
2022/08/21 08:33:27;;;;;;;18.10;2.60;;;;;;;20.47;70.23;100931.69;4985305;28;20040;-79
2022/08/21 08:35:53;;;;;;;16.33;2.67;;;;;;;20.67;73.05;100964.13;4982747;28;20391;-80
2022/08/21 08:38:20;;;;;;;8.65;2.25;;;;;;;22.06;67.99;100961.25;4996985;28;20042;-79
2022/08/21 08:41:05;;;;;;;13.45;2.10;;;;;;;22.12;65.17;100963.03;4999226;28;20050;-78
2022/08/21 08:43:33;;;;;;;16.60;2.78;;;;;;;22.16;65.42;100958.69;4998330;28;20065;-78
2022/08/21 08:46:03;;;;;;;15.70;2.75;;;;;;;23.07;62.08;100937.63;4984620;28;20034;-79
2022/08/21 08:48:42;;;;;;;12.45;2.30;;;;;;;24.13;59.79;100950.88;4991997;28;20037;-79
2022/08/21 08:51:14;;;;;;;13.23;2.30;;;;;;;23.82;59.04;100953.34;4986562;28;20468;-79
2022/08/21 08:54:00;;;;;;;9.77;2.33;;;;;;;23.36;58.92;100960.22;4988701;28;20080;-78
2022/08/21 08:56:30;;;;;;;9.23;2.17;;;;;;;22.64;62.56;100958.38;4967400;28;20137;-81
2022/08/21 08:59:00;;;;;;;13.75;3.63;;;;;;;22.05;63.37;100948.66;4996772;28;20034;-79
2022/08/21 09:01:26;;;;;;;14.00;2.88;;;;;;;22.32;63.25;100954.34;4973076;28;20033;-89
2022/08/21 09:03:52;;;;;;;12.63;2.65;;;;;;;22.45;62.74;100960.56;5013965;28;20104;-88
2022/08/21 09:06:24;;;;;;;13.63;2.10;;;;;;;22.01;60.22;100958.44;4984954;28;20171;-87
2022/08/21 09:09:01;;;;;;;11.97;1.90;;;;;;;21.48;62.12;100965.94;5018490;28;20060;-88
2022/08/21 09:11:36;;;;;;;15.02;2.38;;;;;;;21.62;62.68;100968.38;4994312;28;20033;-88
2022/08/21 09:14:40;;;;;;;10.90;2.63;;;;;;;22.01;62.07;100963.91;4984644;28;20035;-88
2022/08/21 09:17:12;;;;;;;13.50;4.20;;;;;;;22.16;58.04;100960.63;4998783;28;20038;-88
2022/08/21 09:19:56;;;;;;;13.30;2.55;;;;;;;22.75;60.13;100957.44;5011898;28;20120;-88
2022/08/21 09:22:43;;;;;;;9.93;2.30;;;;;;;24.41;52.81;100955.22;5004550;28;20180;-90
2022/08/21 09:25:18;;;;;;;9.65;2.15;;;;;;;27.36;44.94;100933.13;5007035;28;20034;-88
2022/08/21 09:27:43;;;;;;;17.38;2.47;;;;;;;28.84;41.96;100939.44;4989279;28;20026;-90
2022/08/21 09:30:10;;;;;;;7.35;2.30;;;;;;;29.77;40.46;100901.97;4976674;28;20037;-90
2022/08/21 09:32:38;;;;;;;8.30;1.90;;;;;;;29.91;37.70;100924.19;4988542;28;20061;-90
2022/08/21 09:35:09;;;;;;;37.20;11.90;;;;;;;28.90;36.76;100905.88;4987243;28;20111;-90
2022/08/21 09:37:51;;;;;;;10.25;1.90;;;;;;;27.93;38.94;100926.16;4992618;28;20033;-89
2022/08/21 09:40:35;;;;;;;10.68;2.17;;;;;;;28.99;37.31;100908.00;4987439;28;20396;-92
2022/08/21 09:43:06;;;;;;;8.05;2.42;;;;;;;29.65;34.45;100934.03;4994698;28;20038;-90
2022/08/21 09:45:33;;;;;;;7.03;2.50;;;;;;;30.23;32.84;100915.06;5000719;28;20054;-88
2022/08/21 09:48:19;;;;;;;9.98;2.05;;;;;;;30.15;30.54;100929.63;4974720;28;20472;-88
2022/08/21 09:50:47;;;;;;;12.02;1.73;;;;;;;30.65;30.36;100899.31;4974820;28;20039;-89
2022/08/21 09:53:30;;;;;;;10.63;5.03;;;;;;;32.02;29.09;100926.38;4988345;28;20311;-90
2022/08/21 09:58:49;;;;;;;21.42;12.68;;;;;;;34.01;24.50;100931.81;4991904;28;20038;-92
2022/08/21 10:01:17;;;;;;;10.25;2.78;;;;;;;33.15;24.37;100908.28;4998478;28;20033;-91
2022/08/21 10:03:44;;;;;;;8.50;2.95;;;;;;;30.27;28.95;100909.72;4977162;28;20637;-90
2022/08/21 10:06:22;;;;;;;5.10;1.55;;;;;;;27.62;30.99;100934.63;4989331;28;20033;-88
2022/08/21 10:08:47;;;;;;;5.05;1.45;;;;;;;25.75;33.49;100927.28;4986737;28;20034;-88
2022/08/21 10:11:17;;;;;;;4.38;1.65;;;;;;;24.72;34.59;100909.56;5001807;28;20053;-89
2022/08/21 10:13:52;;;;;;;6.00;1.60;;;;;;;24.17;36.27;100934.72;5002816;28;20409;-88
2022/08/21 10:16:40;;;;;;;10.35;1.83;;;;;;;23.69;37.62;100940.00;4995816;28;20031;-87
2022/08/21 10:19:43;;;;;;;7.47;1.58;;;;;;;23.31;38.61;100933.53;5021826;28;20073;-88
2022/08/21 10:22:19;;;;;;;9.85;2.10;;;;;;;22.51;39.87;100935.72;5003637;28;20034;-88
2022/08/21 10:25:06;;;;;;;9.27;1.40;;;;;;;21.86;41.63;100941.75;5012692;28;20062;-89
2022/08/21 10:28:02;;;;;;;11.93;2.40;;;;;;;21.29;42.64;100928.88;4984191;28;20038;-90
2022/08/21 10:31:03;;;;;;;6.32;1.48;;;;;;;20.94;43.39;100943.47;5014420;28;20407;-90
2022/08/21 10:33:47;;;;;;;4.68;1.50;;;;;;;20.80;44.29;100923.75;4995560;28;20042;-90
2022/08/21 10:36:21;;;;;;;6.40;1.50;;;;;;;20.85;44.01;100928.47;4993908;28;20056;-88
2022/08/21 10:39:19;;;;;;;11.18;1.63;;;;;;;20.88;46.03;100938.09;4992172;28;20046;-90
2022/08/21 10:42:06;;;;;;;6.68;1.80;;;;;;;21.02;47.10;100939.53;4980007;28;20456;-89
2022/08/21 10:44:38;;;;;;;11.35;2.15;;;;;;;21.02;46.74;100945.81;4986773;28;20419;-89
2022/08/21 10:47:06;;;;;;;8.90;3.35;;;;;;;20.78;46.21;100893.09;4993112;28;20038;-90
2022/08/21 10:49:39;;;;;;;8.27;2.38;;;;;;;21.07;46.25;100937.72;4986508;28;20042;-90
2022/08/21 10:52:17;;;;;;;5.30;1.70;;;;;;;20.91;45.04;100921.25;4987448;28;20044;-88
2022/08/21 10:54:46;;;;;;;8.02;1.85;;;;;;;20.84;45.53;100905.78;4985271;28;20125;-91
2022/08/21 10:57:17;;;;;;;10.52;2.97;;;;;;;20.96;45.54;100911.25;5002894;28;21135;-88
2022/08/21 10:59:52;;;;;;;5.25;1.83;;;;;;;22.63;41.06;100913.72;4995943;28;20132;-88
2022/08/21 11:02:27;;;;;;;5.20;1.60;;;;;;;22.75;40.87;100925.38;4975988;28;20613;-90
2022/08/21 11:05:16;;;;;;;5.00;1.60;;;;;;;21.68;42.37;100920.91;4998291;28;20052;-90
2022/08/21 11:08:09;;;;;;;6.05;1.48;;;;;;;20.37;46.57;100915.88;4988938;28;20049;-89
2022/08/21 11:10:45;;;;;;;5.47;1.40;;;;;;;19.92;48.66;100941.00;4968348;28;20049;-90
2022/08/21 11:13:19;;;;;;;5.50;1.50;;;;;;;19.66;48.75;100893.97;5011687;28;20042;-91
2022/08/21 11:15:59;;;;;;;6.07;1.88;;;;;;;20.12;47.04;100903.28;4989060;28;20029;-88
2022/08/21 11:18:32;;;;;;;7.35;1.48;;;;;;;20.07;46.73;100911.34;4982243;28;20483;-90
2022/08/21 11:21:13;;;;;;;7.00;1.67;;;;;;;20.69;46.05;100896.44;4991710;28;20037;-89
2022/08/21 11:24:03;;;;;;;8.23;1.70;;;;;;;21.25;43.88;100912.13;4985484;28;20042;-90
2022/08/21 11:26:50;;;;;;;5.03;1.50;;;;;;;20.79;43.34;100913.88;4991137;28;20380;-88
2022/08/21 11:29:24;;;;;;;7.78;1.65;;;;;;;21.13;43.07;100896.81;4998146;28;20030;-88
2022/08/21 11:32:07;;;;;;;4.90;1.88;;;;;;;24.23;37.90;100906.16;5000429;28;20030;-88